Time;durP1;ratioP1;P1;durP2;ratioP2;P2;SDS_P1;SDS_P2;PMS_P1;PMS_P2;Temp;Humidity;BMP_temperature;BMP_pressure;BME280_temperature;BME280_humidity;BME280_pressure;Samples;Min_cycle;Max_cycle;Signal;HPM_P1;HPM_P2
2021/07/30 00:02:20;;;;;;;4.07;2.22;;;;;;;16.67;67.13;99920.50;5083662;28;20048;-50
2021/07/30 00:04:48;;;;;;;6.25;2.10;;;;;;;16.69;67.18;99918.09;5083707;28;20051;-45
2021/07/30 00:07:15;;;;;;;4.80;2.58;;;;;;;16.69;67.10;99906.91;5084307;28;20051;-45
2021/07/30 00:09:41;;;;;;;5.63;2.28;;;;;;;16.64;67.29;99910.13;5085202;28;20061;-44
2021/07/30 00:12:08;;;;;;;2.50;2.20;;;;;;;16.63;67.37;99914.09;5084337;28;20187;-49
2021/07/30 00:14:35;;;;;;;3.78;2.15;;;;;;;16.63;67.46;99908.53;5084334;28;20570;-43
2021/07/30 00:17:02;;;;;;;3.03;2.15;;;;;;;16.62;67.61;99898.56;5084141;28;20102;-44
2021/07/30 00:19:30;;;;;;;4.43;2.15;;;;;;;16.61;67.75;99900.56;5083087;28;20044;-43
2021/07/30 00:21:57;;;;;;;5.18;2.10;;;;;;;16.60;67.72;99889.78;5082318;28;20362;-46
2021/07/30 00:24:23;;;;;;;8.65;2.50;;;;;;;16.62;67.62;99901.34;5083141;28;20050;-43
2021/07/30 00:26:50;;;;;;;4.15;1.92;;;;;;;16.58;67.76;99894.97;5084576;28;20054;-43
2021/07/30 00:29:18;;;;;;;8.20;2.33;;;;;;;16.54;67.77;99894.22;5082817;28;20052;-44
2021/07/30 00:31:46;;;;;;;3.60;2.30;;;;;;;16.49;67.84;99891.81;5082589;28;20076;-45
2021/07/30 00:34:12;;;;;;;5.32;2.28;;;;;;;16.48;68.09;99885.41;5081894;28;20051;-45
2021/07/30 00:36:39;;;;;;;5.35;2.20;;;;;;;16.48;67.98;99888.22;5084177;28;20412;-46
2021/07/30 00:39:06;;;;;;;4.68;2.38;;;;;;;16.45;68.00;99887.03;5081797;28;20102;-46
2021/07/30 00:41:39;;;;;;;2.85;2.17;;;;;;;16.48;67.88;99873.44;5084616;28;20054;-43
2021/07/30 00:44:08;;;;;;;3.42;2.35;;;;;;;16.45;67.96;99881.44;5082397;28;20046;-47
2021/07/30 00:46:37;;;;;;;7.28;2.28;;;;;;;16.43;67.95;99869.88;5083063;28;20062;-45
2021/07/30 00:49:04;;;;;;;4.32;2.47;;;;;;;16.45;67.85;99875.84;5083330;28;20129;-43
2021/07/30 00:51:32;;;;;;;3.50;2.42;;;;;;;16.45;67.81;99869.47;5083303;28;20055;-46
2021/07/30 00:53:59;;;;;;;5.90;3.45;;;;;;;16.41;67.86;99869.47;5082510;28;20062;-50
2021/07/30 00:56:26;;;;;;;5.03;2.83;;;;;;;16.36;68.10;99875.47;5084171;28;20047;-43
2021/07/30 00:58:53;;;;;;;3.33;2.13;;;;;;;16.33;68.21;99867.94;5082925;28;20040;-43
2021/07/30 01:01:21;;;;;;;2.75;2.53;;;;;;;16.32;68.34;99866.31;5082436;28;20105;-43
2021/07/30 01:03:48;;;;;;;6.35;3.72;;;;;;;16.31;68.41;99861.94;5083198;28;20063;-44
2021/07/30 01:06:14;;;;;;;4.97;2.45;;;;;;;16.28;68.48;99873.91;5083252;28;20043;-42
2021/07/30 01:08:41;;;;;;;4.45;2.38;;;;;;;16.26;68.61;99876.31;5083485;28;20043;-42
2021/07/30 01:11:08;;;;;;;4.68;3.25;;;;;;;16.25;68.60;99863.56;5083145;28;20044;-49
2021/07/30 01:13:36;;;;;;;3.88;2.85;;;;;;;16.29;68.59;99872.72;5082797;28;20129;-44
2021/07/30 01:16:03;;;;;;;6.65;2.45;;;;;;;16.26;68.88;99869.94;5081829;28;20527;-47
2021/07/30 01:18:29;;;;;;;2.28;2.08;;;;;;;16.26;68.95;99862.34;5081921;28;20044;-45
2021/07/30 01:21:16;;;;;;;4.20;2.40;;;;;;;16.22;69.40;99866.38;5082791;28;20036;-42
2021/07/30 01:23:43;;;;;;;4.13;2.65;;;;;;;16.23;69.18;99863.16;5082024;28;20105;-45
2021/07/30 01:26:10;;;;;;;3.22;2.92;;;;;;;16.21;69.29;99859.19;5082993;28;20036;-43
2021/07/30 01:28:36;;;;;;;3.75;2.20;;;;;;;16.22;69.56;99861.59;5082260;28;20063;-45
2021/07/30 01:31:04;;;;;;;7.10;4.18;;;;;;;16.20;69.60;99854.81;5082081;28;20048;-43
2021/07/30 01:33:31;;;;;;;2.45;2.25;;;;;;;16.21;69.53;99857.19;5081993;28;20050;-52
2021/07/30 01:35:58;;;;;;;4.78;2.90;;;;;;;16.18;69.61;99855.19;5082141;28;20044;-43
2021/07/30 01:38:25;;;;;;;4.53;2.40;;;;;;;16.19;69.78;99854.00;5083005;28;20048;-49
2021/07/30 01:40:53;;;;;;;3.20;2.60;;;;;;;16.21;69.74;99853.59;5082562;28;20138;-44
2021/07/30 01:43:19;;;;;;;4.25;3.08;;;;;;;16.20;69.82;99852.00;5082428;28;20485;-44
2021/07/30 01:45:46;;;;;;;6.05;2.90;;;;;;;16.12;70.04;99853.25;5080553;28;20097;-42
2021/07/30 01:48:13;;;;;;;5.57;3.20;;;;;;;16.02;70.42;99852.06;5081871;28;20059;-43
2021/07/30 01:50:40;;;;;;;7.45;3.80;;;;;;;16.03;70.35;99850.06;5064241;28;20048;-44
2021/07/30 01:53:06;;;;;;;3.88;3.33;;;;;;;15.98;70.63;99851.28;5081503;28;20047;-45
2021/07/30 01:55:33;;;;;;;6.13;3.03;;;;;;;15.97;70.83;99852.47;5082361;28;20056;-46
2021/07/30 01:58:00;;;;;;;4.05;2.75;;;;;;;16.01;70.63;99844.09;5082187;28;20134;-43
2021/07/30 02:00:27;;;;;;;5.13;2.88;;;;;;;16.03;70.78;99850.88;5082080;28;20044;-45
2021/07/30 02:02:54;;;;;;;3.30;3.00;;;;;;;16.03;70.75;99850.88;5080758;28;20052;-45
2021/07/30 02:05:21;;;;;;;7.43;3.40;;;;;;;15.98;70.92;99851.28;5081593;28;20105;-42
2021/07/30 02:07:48;;;;;;;5.32;3.10;;;;;;;16.03;70.99;99847.28;5081838;28;20062;-47
2021/07/30 02:10:14;;;;;;;4.70;3.20;;;;;;;16.05;70.90;99842.88;5081242;28;20052;-45
2021/07/30 02:15:46;;;;;;;4.93;3.10;;;;;;;16.05;71.26;99844.88;4992334;28;20225;-47
2021/07/30 02:18:13;;;;;;;6.30;3.33;;;;;;;15.98;71.34;99856.88;4991268;28;20130;-42
2021/07/30 02:20:40;;;;;;;8.15;3.60;;;;;;;15.95;71.45;99849.28;5034075;28;20516;-43
2021/07/30 02:23:06;;;;;;;4.82;3.63;;;;;;;15.90;71.79;99855.28;5080697;28;20044;-45
2021/07/30 02:25:33;;;;;;;7.20;3.42;;;;;;;15.88;72.29;99846.53;5080064;28;20044;-45
2021/07/30 02:28:03;;;;;;;4.97;3.50;;;;;;;15.87;72.43;99853.31;5080865;28;20040;-51
2021/07/30 02:30:30;;;;;;;8.52;4.18;;;;;;;15.84;72.62;99837.34;5079364;28;20065;-46
2021/07/30 02:32:57;;;;;;;7.20;4.50;;;;;;;15.80;72.96;99836.59;5079967;28;20036;-46
2021/07/30 02:35:24;;;;;;;5.80;4.18;;;;;;;15.72;73.45;99832.22;5081691;28;20137;-47
2021/07/30 02:37:50;;;;;;;4.93;4.43;;;;;;;15.67;73.67;99833.41;5080302;28;20058;-46
2021/07/30 02:40:17;;;;;;;9.20;5.35;;;;;;;15.66;73.80;99833.81;5080601;28;20048;-45
2021/07/30 02:42:44;;;;;;;5.63;4.55;;;;;;;15.64;74.05;99828.63;5080818;28;20766;-47
2021/07/30 02:45:11;;;;;;;7.07;4.60;;;;;;;15.65;74.26;99824.63;5080540;28;21992;-48
2021/07/30 02:47:38;;;;;;;7.90;4.82;;;;;;;15.63;74.36;99829.81;5081410;28;20058;-48
2021/07/30 02:50:05;;;;;;;8.43;4.57;;;;;;;15.62;74.37;99821.88;5080864;28;20514;-47
2021/07/30 02:52:33;;;;;;;8.18;5.13;;;;;;;15.57;74.80;99822.25;5080851;28;20052;-53
2021/07/30 02:55:01;;;;;;;9.15;5.50;;;;;;;15.59;74.66;99825.47;5081905;28;20055;-50
2021/07/30 02:57:28;;;;;;;8.07;5.22;;;;;;;15.55;75.03;99819.06;5079597;28;20119;-47
2021/07/30 02:59:54;;;;;;;8.23;5.38;;;;;;;15.56;75.21;99823.47;5080703;28;20064;-46
2021/07/30 03:02:21;;;;;;;10.32;5.13;;;;;;;15.57;75.20;99816.66;5080214;28;20044;-45
2021/07/30 03:04:48;;;;;;;5.50;4.60;;;;;;;15.59;75.13;99817.09;5080587;28;20556;-48
2021/07/30 03:07:15;;;;;;;7.25;5.28;;;;;;;15.56;75.31;99815.91;5080786;28;20051;-49
2021/07/30 03:09:42;;;;;;;6.85;4.75;;;;;;;15.51;75.58;99818.28;5080064;28;20055;-45
2021/07/30 03:12:09;;;;;;;9.82;6.18;;;;;;;15.41;76.06;99821.88;5080336;28;20290;-52
2021/07/30 03:14:38;;;;;;;7.13;5.13;;;;;;;15.39;76.06;99819.47;5080547;28;20044;-50
2021/07/30 03:17:06;;;;;;;6.72;5.10;;;;;;;15.37;76.35;99819.06;5079653;28;20024;-46
2021/07/30 03:19:34;;;;;;;7.45;5.60;;;;;;;15.34;76.55;99822.66;5080684;28;20047;-45
2021/07/30 03:22:02;;;;;;;11.77;6.00;;;;;;;15.30;76.93;99824.66;5080726;28;20047;-47
2021/07/30 03:24:29;;;;;;;8.90;6.18;;;;;;;15.28;77.16;99827.03;5062229;28;20062;-43
2021/07/30 03:26:56;;;;;;;10.10;6.05;;;;;;;15.29;77.28;99825.03;5079890;28;20097;-47
2021/07/30 03:29:23;;;;;;;8.60;6.30;;;;;;;15.30;77.13;99826.66;5080329;28;20396;-44
2021/07/30 03:31:50;;;;;;;8.93;6.80;;;;;;;15.32;77.25;99824.25;5080361;28;20093;-46
2021/07/30 03:34:17;;;;;;;6.88;5.72;;;;;;;15.30;77.37;99819.09;5080634;28;20644;-47
2021/07/30 03:36:44;;;;;;;6.78;6.00;;;;;;;15.32;77.52;99835.41;5080673;28;20548;-47
2021/07/30 03:39:12;;;;;;;8.80;6.95;;;;;;;15.33;77.43;99828.66;5079223;28;20044;-47
2021/07/30 03:41:40;;;;;;;8.50;6.18;;;;;;;15.33;77.71;99823.06;5081262;28;20864;-43
2021/07/30 03:44:06;;;;;;;8.05;6.35;;;;;;;15.32;77.80;99827.03;5079884;28;20052;-43
2021/07/30 03:46:33;;;;;;;11.05;5.68;;;;;;;15.32;77.90;99819.47;5079641;28;20393;-45
2021/07/30 03:49:00;;;;;;;8.43;5.72;;;;;;;15.30;77.94;99826.66;5079203;28;20048;-47
2021/07/30 03:51:27;;;;;;;9.88;6.07;;;;;;;15.27;78.12;99821.88;5080639;28;20058;-50
2021/07/30 03:53:54;;;;;;;9.88;6.18;;;;;;;15.25;78.22;99825.03;5080174;28;20044;-44
2021/07/30 03:56:20;;;;;;;7.22;5.82;;;;;;;15.27;78.30;99819.06;5080355;28;20052;-44
2021/07/30 03:58:48;;;;;;;8.95;6.50;;;;;;;15.24;78.32;99829.84;5080333;28;20501;-46
2021/07/30 04:01:17;;;;;;;8.05;6.28;;;;;;;15.24;78.63;99818.69;5080019;28;20067;-44
2021/07/30 04:03:45;;;;;;;9.60;6.60;;;;;;;15.29;78.50;99819.47;5080159;28;20052;-46
2021/07/30 04:06:14;;;;;;;6.75;6.05;;;;;;;15.25;78.50;99825.03;5079512;28;20481;-43
2021/07/30 04:08:43;;;;;;;9.90;6.50;;;;;;;15.25;78.52;99820.25;5081842;28;20048;-43
2021/07/30 04:11:10;;;;;;;7.78;5.65;;;;;;;15.25;78.70;99825.84;5082956;28;20134;-44
2021/07/30 04:13:37;;;;;;;9.43;6.63;;;;;;;15.24;78.81;99832.63;5083905;28;20048;-48
2021/07/30 04:16:06;;;;;;;9.73;6.35;;;;;;;15.25;78.80;99814.69;5083614;28;20131;-47
2021/07/30 04:18:34;;;;;;;8.18;6.20;;;;;;;15.27;78.92;99817.88;5083331;28;20032;-47
2021/07/30 04:21:07;;;;;;;10.82;6.63;;;;;;;15.29;78.91;99822.25;5083708;28;20036;-49
2021/07/30 04:23:35;;;;;;;11.48;6.82;;;;;;;15.30;78.93;99823.88;5083110;28;20059;-45
2021/07/30 04:26:02;;;;;;;10.38;7.20;;;;;;;15.29;79.26;99823.06;5082097;28;20051;-48
2021/07/30 04:28:29;;;;;;;8.48;7.20;;;;;;;15.28;79.26;99829.81;5083171;28;20132;-48
2021/07/30 04:30:56;;;;;;;12.80;7.68;;;;;;;15.30;79.26;99832.22;5082335;28;20044;-45
2021/07/30 04:33:23;;;;;;;10.30;8.05;;;;;;;15.30;79.27;99835.03;5082596;28;20047;-48
2021/07/30 04:35:50;;;;;;;10.48;7.47;;;;;;;15.27;79.40;99831.81;5082306;28;20040;-49
2021/07/30 04:38:17;;;;;;;9.68;7.68;;;;;;;15.26;79.31;99826.66;5083819;28;20036;-49
2021/07/30 04:40:43;;;;;;;9.52;8.00;;;;;;;15.26;79.42;99832.22;5082267;28;20063;-45
2021/07/30 04:43:10;;;;;;;12.73;8.00;;;;;;;15.25;79.65;99834.22;5082553;28;20052;-45
2021/07/30 04:45:38;;;;;;;12.05;7.57;;;;;;;15.24;79.61;99832.63;5082508;28;20051;-46
2021/07/30 04:48:05;;;;;;;9.48;7.25;;;;;;;15.23;79.69;99827.44;5082949;28;20054;-49
2021/07/30 04:50:32;;;;;;;9.13;7.00;;;;;;;15.22;79.82;99823.06;5083449;28;20047;-48
2021/07/30 04:52:59;;;;;;;9.68;7.55;;;;;;;15.21;80.02;99824.25;5082597;28;20048;-46
2021/07/30 04:55:26;;;;;;;11.38;8.23;;;;;;;15.23;79.88;99833.81;5081988;28;20040;-48
2021/07/30 04:57:54;;;;;;;8.30;6.93;;;;;;;15.24;79.88;99835.41;5083002;28;20036;-44
2021/07/30 05:00:22;;;;;;;10.00;7.43;;;;;;;15.25;80.02;99847.34;5081972;28;20048;-45
2021/07/30 05:02:53;;;;;;;11.85;8.00;;;;;;;15.24;80.24;99843.78;5063943;28;20501;-46
2021/07/30 05:05:20;;;;;;;12.13;6.90;;;;;;;15.22;80.02;99843.38;5082848;28;20134;-45
2021/07/30 05:07:47;;;;;;;12.40;8.68;;;;;;;15.23;80.05;99847.75;5082721;28;20543;-49
2021/07/30 05:10:14;;;;;;;9.38;7.05;;;;;;;15.23;80.07;99847.75;5081641;28;20055;-49
2021/07/30 05:12:41;;;;;;;9.90;7.15;;;;;;;15.27;80.01;99844.97;5082428;28;20051;-46
2021/07/30 05:15:08;;;;;;;12.70;7.72;;;;;;;15.31;79.96;99851.34;5081868;28;20059;-45
2021/07/30 05:17:35;;;;;;;9.65;7.38;;;;;;;15.33;79.82;99854.53;5082933;28;20098;-49
2021/07/30 05:20:02;;;;;;;14.00;9.10;;;;;;;15.34;80.10;99849.75;5082769;28;20066;-46
2021/07/30 05:22:29;;;;;;;10.43;7.78;;;;;;;15.35;79.96;99863.31;5082427;28;20108;-45
2021/07/30 05:24:57;;;;;;;13.65;9.20;;;;;;;15.36;80.13;99858.50;5083210;28;20040;-47
2021/07/30 05:27:24;;;;;;;13.88;8.73;;;;;;;15.35;80.09;99857.72;5081345;28;20040;-49
2021/07/30 05:29:51;;;;;;;11.98;9.85;;;;;;;15.35;80.08;99860.53;5082834;28;20063;-48
2021/07/30 05:32:18;;;;;;;10.75;8.52;;;;;;;15.31;80.13;99856.91;5064050;28;20129;-46
2021/07/30 05:34:45;;;;;;;12.25;8.05;;;;;;;15.27;80.35;99861.72;5081784;28;20056;-45
2021/07/30 05:37:12;;;;;;;8.18;7.18;;;;;;;15.23;80.50;99861.69;5082670;28;20512;-44
2021/07/30 05:39:41;;;;;;;10.48;7.47;;;;;;;15.25;80.26;99859.31;5082764;28;20732;-51
2021/07/30 05:42:08;;;;;;;17.08;9.57;;;;;;;15.22;80.35;99864.91;5080903;28;20054;-53
2021/07/30 05:44:35;;;;;;;16.20;9.27;;;;;;;15.22;80.34;99865.66;5082854;28;20054;-44
2021/07/30 05:47:03;;;;;;;13.73;8.70;;;;;;;15.20;80.33;99868.06;5082460;28;20048;-47
2021/07/30 05:49:33;;;;;;;15.32;8.82;;;;;;;15.13;80.57;99868.06;5081873;28;20142;-49
2021/07/30 05:52:00;;;;;;;12.07;8.77;;;;;;;15.12;80.46;99872.03;5082148;28;20066;-45
2021/07/30 05:54:27;;;;;;;17.23;9.32;;;;;;;15.07;80.58;99874.44;5081696;28;20102;-50
2021/07/30 05:56:55;;;;;;;12.32;8.95;;;;;;;15.08;80.48;99876.84;5081139;28;20044;-43
2021/07/30 05:59:23;;;;;;;13.52;9.38;;;;;;;15.11;80.36;99876.03;5082572;28;20088;-46
2021/07/30 06:01:50;;;;;;;16.38;9.70;;;;;;;15.10;80.35;99879.22;5081035;28;20105;-43
2021/07/30 06:04:18;;;;;;;18.13;10.15;;;;;;;15.10;80.40;99885.59;5082334;28;20378;-46
2021/07/30 06:06:45;;;;;;;17.38;8.55;;;;;;;15.09;80.52;99889.56;5081715;28;20052;-45
2021/07/30 06:09:13;;;;;;;14.55;8.57;;;;;;;15.09;80.67;99900.72;5082252;28;20807;-45
2021/07/30 06:11:39;;;;;;;14.40;8.55;;;;;;;15.06;80.80;99890.34;5081575;28;20051;-44
2021/07/30 06:14:06;;;;;;;18.95;10.13;;;;;;;15.10;80.58;99896.75;5080734;28;20046;-46
2021/07/30 06:16:33;;;;;;;12.35;8.60;;;;;;;15.14;80.70;99891.94;5081094;28;20163;-45
2021/07/30 06:19:04;;;;;;;11.52;8.35;;;;;;;15.16;80.70;99897.94;5082182;28;20058;-49
2021/07/30 06:21:32;;;;;;;14.68;7.45;;;;;;;15.18;80.56;99901.13;5080173;28;20413;-47
2021/07/30 06:24:00;;;;;;;16.45;7.60;;;;;;;15.18;80.57;99903.13;5082123;28;20055;-47
2021/07/30 06:26:27;;;;;;;13.32;8.52;;;;;;;15.15;80.80;99898.34;5080830;28;20044;-47
2021/07/30 06:28:54;;;;;;;14.50;8.88;;;;;;;15.18;80.78;99903.13;5081375;28;20530;-45
2021/07/30 06:31:21;;;;;;;11.77;7.05;;;;;;;15.17;80.82;99905.09;5079906;28;20058;-47
2021/07/30 06:33:47;;;;;;;11.73;7.82;;;;;;;15.18;80.86;99897.53;5081983;28;20115;-45
2021/07/30 06:36:18;;;;;;;15.20;8.75;;;;;;;15.18;80.75;99897.53;5079659;28;20206;-45
2021/07/30 06:38:44;;;;;;;13.10;8.88;;;;;;;15.21;80.69;99896.75;5082074;28;20095;-45
2021/07/30 06:41:13;;;;;;;12.20;8.10;;;;;;;15.21;80.81;99900.34;5080968;28;20512;-43
2021/07/30 06:43:40;;;;;;;11.75;8.23;;;;;;;15.18;80.86;99897.53;5080770;28;20048;-43
2021/07/30 06:46:07;;;;;;;14.57;8.77;;;;;;;15.14;80.86;99897.53;5081054;28;20109;-48
2021/07/30 06:48:33;;;;;;;11.18;8.07;;;;;;;15.14;80.82;99896.75;5081224;28;20040;-46
2021/07/30 06:51:00;;;;;;;16.67;9.15;;;;;;;15.13;80.82;99898.75;5080962;28;20043;-44
2021/07/30 06:53:28;;;;;;;19.42;10.05;;;;;;;15.00;81.02;99896.72;5080801;28;20078;-45
2021/07/30 06:55:57;;;;;;;13.15;8.38;;;;;;;14.97;81.09;99898.31;5080851;28;20051;-44
2021/07/30 06:58:24;;;;;;;11.75;7.28;;;;;;;14.98;81.12;99893.53;5080628;28;20047;-43
2021/07/30 07:00:50;;;;;;;13.18;8.13;;;;;;;14.99;81.10;99898.72;5077791;28;20512;-50
2021/07/30 07:03:17;;;;;;;12.02;8.07;;;;;;;14.95;81.16;99894.31;5074384;28;20291;-48
2021/07/30 07:05:44;;;;;;;11.13;6.90;;;;;;;14.98;81.45;99891.56;5075139;28;20051;-45
2021/07/30 07:08:12;;;;;;;13.68;7.45;;;;;;;15.05;81.06;99887.97;5077747;28;20048;-48
2021/07/30 07:10:40;;;;;;;13.10;7.60;;;;;;;15.05;81.08;99899.94;5078295;28;20163;-49
2021/07/30 07:13:07;;;;;;;10.50;6.25;;;;;;;15.09;81.08;99899.94;5077799;28;20098;-46
2021/07/30 07:15:44;;;;;;;12.80;6.70;;;;;;;15.14;81.38;99891.94;5079039;28;20125;-48
2021/07/30 07:18:11;;;;;;;9.55;6.35;;;;;;;15.19;81.12;99899.16;5078336;28;20048;-48
2021/07/30 07:20:39;;;;;;;8.18;5.75;;;;;;;15.21;81.43;99905.91;5076753;28;20474;-51
2021/07/30 07:23:06;;;;;;;5.47;4.30;;;;;;;15.19;81.33;99904.72;5078863;28;20040;-45
2021/07/30 07:25:33;;;;;;;6.65;3.88;;;;;;;15.20;81.35;99901.53;5078186;28;20048;-47
2021/07/30 07:28:00;;;;;;;5.43;3.45;;;;;;;15.20;81.22;99904.31;5079245;28;20046;-46
2021/07/30 07:30:27;;;;;;;5.85;3.20;;;;;;;15.21;81.31;99908.72;5075454;28;20516;-48
2021/07/30 07:32:54;;;;;;;5.15;2.45;;;;;;;15.25;81.29;99912.28;5078331;28;20808;-51
2021/07/30 07:35:21;;;;;;;4.10;3.17;;;;;;;15.29;81.08;99919.88;5078217;28;20056;-46
2021/07/30 07:37:48;;;;;;;4.85;2.75;;;;;;;15.30;81.17;99924.25;5077430;28;20044;-44
2021/07/30 07:40:15;;;;;;;3.17;2.20;;;;;;;15.30;81.03;99921.47;5077265;28;20059;-48
2021/07/30 07:42:42;;;;;;;4.70;2.88;;;;;;;15.25;81.23;99926.22;5076918;28;20047;-44
2021/07/30 07:45:09;;;;;;;2.65;2.03;;;;;;;15.27;81.20;99923.06;5081174;28;20151;-43
2021/07/30 07:47:36;;;;;;;4.32;2.05;;;;;;;15.31;81.23;99928.63;5082541;28;20040;-43
2021/07/30 07:50:03;;;;;;;6.43;2.65;;;;;;;15.29;81.19;99925.44;5081837;28;20036;-44
2021/07/30 07:52:33;;;;;;;3.00;1.80;;;;;;;15.32;81.37;99924.66;5080936;28;20559;-43
2021/07/30 07:55:05;;;;;;;3.63;2.15;;;;;;;15.33;81.14;99937.41;5081872;28;20081;-46
2021/07/30 07:57:31;;;;;;;3.45;2.60;;;;;;;15.32;81.25;99935.81;5080676;28;20036;-45
2021/07/30 07:59:58;;;;;;;5.45;1.95;;;;;;;15.31;81.36;99939.78;5080745;28;20044;-44
2021/07/30 08:02:26;;;;;;;2.95;2.00;;;;;;;15.33;81.28;99948.56;5062016;28;20547;-45
2021/07/30 08:04:54;;;;;;;2.15;1.95;;;;;;;15.30;81.28;99943.78;5080315;28;20044;-46
2021/07/30 08:07:21;;;;;;;2.85;2.38;;;;;;;15.27;81.24;99945.38;5080877;28;20524;-44
2021/07/30 08:09:47;;;;;;;4.78;2.65;;;;;;;15.29;81.50;99948.56;5080793;28;20059;-49
2021/07/30 08:12:15;;;;;;;4.57;3.42;;;;;;;15.31;81.34;99948.94;5080259;28;20048;-47
2021/07/30 08:14:41;;;;;;;3.63;2.88;;;;;;;15.32;81.41;99952.53;5081778;28;20303;-44
2021/07/30 08:17:09;;;;;;;3.97;3.13;;;;;;;15.35;81.24;99946.19;5081773;28;20140;-47
2021/07/30 08:19:36;;;;;;;5.50;4.18;;;;;;;15.37;81.20;99949.34;5080836;28;20488;-45
2021/07/30 08:22:04;;;;;;;10.73;4.70;;;;;;;15.40;81.22;99943.00;5080542;28;20040;-48
2021/07/30 08:24:32;;;;;;;8.10;5.13;;;;;;;15.40;80.94;99954.16;5080107;28;20040;-44
2021/07/30 08:26:58;;;;;;;8.07;5.18;;;;;;;15.37;81.26;99954.94;5081655;28;20054;-47
2021/07/30 08:29:31;;;;;;;7.75;4.85;;;;;;;15.38;81.21;99956.53;5080897;28;20052;-48
2021/07/30 08:31:58;;;;;;;9.35;5.93;;;;;;;15.36;81.31;99954.13;5080557;28;20138;-46
2021/07/30 08:34:25;;;;;;;8.88;5.28;;;;;;;15.37;81.25;99949.34;5081302;28;20071;-45
2021/07/30 08:36:52;;;;;;;10.23;5.90;;;;;;;15.38;81.20;99962.13;5079847;28;20040;-46
2021/07/30 08:39:19;;;;;;;9.40;5.10;;;;;;;15.42;81.31;99957.34;5062472;28;20055;-49
2021/07/30 08:41:50;;;;;;;12.23;5.75;;;;;;;15.47;81.45;99965.34;5081038;28;20050;-50
2021/07/30 08:44:17;;;;;;;9.57;6.18;;;;;;;15.50;81.20;99967.34;5081802;28;20044;-48
2021/07/30 08:46:44;;;;;;;11.98;4.90;;;;;;;15.53;81.11;99958.97;5082470;28;20052;-47
2021/07/30 08:49:12;;;;;;;7.20;5.43;;;;;;;15.57;81.28;99956.16;5080313;28;20044;-49
2021/07/30 08:51:43;;;;;;;8.35;6.10;;;;;;;15.60;81.37;99967.34;5080567;28;20044;-49
2021/07/30 08:54:10;;;;;;;9.60;6.03;;;;;;;15.65;81.29;99960.56;5079249;28;20051;-52
2021/07/30 08:56:37;;;;;;;9.15;5.13;;;;;;;15.66;81.34;99964.97;5079557;28;20063;-53
2021/07/30 08:59:07;;;;;;;6.45;4.50;;;;;;;15.71;81.59;99964.56;5081429;28;20052;-52
2021/07/30 09:01:35;;;;;;;7.03;5.22;;;;;;;15.77;81.35;99965.75;5080860;28;20048;-52
2021/07/30 09:04:03;;;;;;;10.10;5.78;;;;;;;15.82;81.27;99966.16;5081276;28;20133;-49
2021/07/30 09:06:29;;;;;;;8.98;5.65;;;;;;;15.83;81.39;99961.38;5079227;28;20132;-49
2021/07/30 09:09:02;;;;;;;7.10;4.38;;;;;;;15.74;81.63;99967.34;5080582;28;20040;-49
2021/07/30 09:11:37;;;;;;;8.85;5.18;;;;;;;15.82;81.69;99965.34;5080508;28;20707;-53
2021/07/30 09:14:07;;;;;;;6.28;3.97;;;;;;;15.86;81.31;99968.16;5079911;28;20060;-49
2021/07/30 09:16:53;;;;;;;5.97;4.20;;;;;;;15.89;81.46;99967.34;5080812;28;20058;-50
2021/07/30 09:19:23;;;;;;;9.32;4.45;;;;;;;15.88;81.31;99963.78;5080296;28;20129;-48
2021/07/30 09:22:10;;;;;;;7.25;4.03;;;;;;;15.83;81.70;99975.34;5080275;28;20523;-46
2021/07/30 09:24:42;;;;;;;8.57;4.50;;;;;;;15.76;81.46;99980.91;5079877;28;20039;-51
2021/07/30 09:27:11;;;;;;;8.82;5.47;;;;;;;15.76;81.67;99978.91;5080185;28;21898;-49
2021/07/30 09:29:41;;;;;;;4.75;3.97;;;;;;;15.80;81.54;99967.75;5080016;28;20040;-47
2021/07/30 09:32:09;;;;;;;6.82;4.72;;;;;;;15.90;81.38;99983.69;5080860;28;20834;-48
2021/07/30 09:34:38;;;;;;;12.13;5.10;;;;;;;15.92;81.57;99980.50;5079590;28;20405;-50
2021/07/30 09:37:28;;;;;;;6.32;4.15;;;;;;;15.95;81.59;99983.28;5079135;28;20129;-47
2021/07/30 09:39:55;;;;;;;6.05;4.13;;;;;;;16.00;81.43;99980.09;5078881;28;20062;-48
2021/07/30 09:42:30;;;;;;;4.97;4.07;;;;;;;16.07;81.56;99982.09;5079678;28;20056;-51
2021/07/30 09:45:00;;;;;;;6.15;3.28;;;;;;;16.09;81.56;99986.09;5080809;28;20040;-54
2021/07/30 09:47:29;;;;;;;4.88;3.53;;;;;;;16.03;81.30;99987.69;5077962;28;20057;-53
2021/07/30 09:50:05;;;;;;;5.53;3.08;;;;;;;16.02;80.98;99983.28;5079347;28;20054;-51
2021/07/30 09:52:34;;;;;;;3.03;2.47;;;;;;;15.95;80.89;99991.66;5079098;28;20048;-48
2021/07/30 09:55:04;;;;;;;4.68;2.65;;;;;;;15.94;80.67;99994.88;5079670;28;20059;-52
2021/07/30 09:57:35;;;;;;;5.63;2.42;;;;;;;15.90;80.81;99996.84;5080689;28;20047;-55
2021/07/30 10:00:06;;;;;;;4.90;3.47;;;;;;;15.93;80.71;99996.06;5058892;28;20058;-51
2021/07/30 10:02:35;;;;;;;4.78;3.60;;;;;;;15.95;80.63;100002.03;5078829;28;20062;-51
2021/07/30 10:05:10;;;;;;;10.63;6.22;;;;;;;15.99;80.80;99994.47;5079913;28;20047;-53
2021/07/30 10:07:38;;;;;;;15.23;10.65;;;;;;;16.09;80.80;100002.03;5078514;28;20975;-47
2021/07/30 10:12:47;;;;;;;8.68;5.95;;;;;;;16.15;81.01;100006.81;5076946;28;20117;-45
2021/07/30 10:15:14;;;;;;;8.88;5.97;;;;;;;16.24;81.07;100007.19;5076950;28;20549;-46
2021/07/30 10:17:46;;;;;;;8.18;5.40;;;;;;;16.27;80.97;100014.78;5060552;28;20048;-51
2021/07/30 10:20:13;;;;;;;;;;;;;;;16.26;81.11;100010.38;5080648;28;20159;-51
2021/07/30 10:23:06;;;;;;;7.93;4.95;;;;;;;16.30;80.65;100013.19;5079523;28;19924;-48
2021/07/30 10:25:35;;;;;;;8.38;4.93;;;;;;;16.32;80.83;100008.78;5078528;28;20142;-48
2021/07/30 10:28:07;;;;;;;7.28;4.40;;;;;;;16.34;80.74;100025.13;5077341;28;20059;-47
2021/07/30 10:30:54;;;;;;;5.85;4.50;;;;;;;16.32;80.77;100006.00;5077420;28;21122;-49
2021/07/30 10:33:30;;;;;;;6.03;4.53;;;;;;;16.42;80.72;100015.53;5078413;28;20048;-54
2021/07/30 10:35:59;;;;;;;6.32;3.15;;;;;;;16.45;80.31;100017.53;5079473;28;20040;-51
2021/07/30 10:38:26;;;;;;;9.27;4.63;;;;;;;16.56;80.30;100018.34;5060835;28;20044;-48
2021/07/30 10:40:59;;;;;;;5.43;3.60;;;;;;;16.67;80.14;100015.53;5077951;28;20052;-48
2021/07/30 10:43:28;;;;;;;7.85;3.72;;;;;;;16.80;80.15;100020.28;5078875;28;20040;-53
2021/07/30 10:46:12;;;;;;;6.18;3.58;;;;;;;16.99;80.06;100021.81;5078951;28;20040;-50
2021/07/30 10:48:43;;;;;;;8.10;4.43;;;;;;;17.17;79.78;100022.53;5078904;28;20052;-49
2021/07/30 10:51:22;;;;;;;4.85;3.83;;;;;;;17.36;79.05;100021.22;5077590;28;20039;-47
2021/07/30 10:53:51;;;;;;;5.10;3.47;;;;;;;17.49;79.31;100027.94;5078665;28;20491;-48
2021/07/30 10:56:21;;;;;;;4.75;2.60;;;;;;;17.59;78.81;100015.91;5078058;28;20790;-50
2021/07/30 10:58:53;;;;;;;7.82;3.63;;;;;;;17.70;78.67;100029.81;5078493;28;20401;-52
2021/07/30 11:01:22;;;;;;;6.95;3.25;;;;;;;17.75;78.46;100024.59;5078480;28;21586;-49
2021/07/30 11:03:52;;;;;;;8.57;4.95;;;;;;;17.77;78.35;100024.97;5078647;28;20040;-47
2021/07/30 11:06:50;;;;;;;4.03;2.85;;;;;;;17.82;77.70;100026.56;5077753;28;20060;-53
2021/07/30 11:09:18;;;;;;;5.57;2.38;;;;;;;17.85;77.64;100034.09;5079135;28;20036;-50
2021/07/30 11:11:46;;;;;;;3.28;2.15;;;;;;;17.85;77.48;100034.09;5078450;28;20047;-48
2021/07/30 11:14:12;;;;;;;6.50;3.10;;;;;;;17.83;77.52;100030.94;5078269;28;20273;-47
2021/07/30 11:16:41;;;;;;;4.95;2.65;;;;;;;17.84;77.16;100032.53;5077976;28;20097;-50
2021/07/30 11:19:09;;;;;;;5.68;2.70;;;;;;;17.88;77.33;100038.88;5081867;28;20149;-50
2021/07/30 11:21:36;;;;;;;3.25;2.65;;;;;;;17.94;77.00;100042.84;5083214;28;20048;-53
2021/07/30 11:24:04;;;;;;;5.95;3.15;;;;;;;18.04;76.94;100037.16;5083420;28;20051;-47
2021/07/30 11:26:33;;;;;;;4.07;2.65;;;;;;;18.11;76.70;100034.28;5081441;28;20535;-46
2021/07/30 11:29:22;;;;;;;3.50;2.38;;;;;;;18.27;76.31;100034.56;5082472;28;20047;-46
2021/07/30 11:32:05;;;;;;;4.03;2.25;;;;;;;18.45;76.10;100031.59;5082988;28;20055;-47
2021/07/30 11:34:35;;;;;;;1.88;1.67;;;;;;;18.65;75.73;100037.41;5082669;28;20068;-47
2021/07/30 11:37:06;;;;;;;3.13;2.30;;;;;;;18.80;75.26;100034.03;5081901;28;20055;-55
2021/07/30 11:39:39;;;;;;;4.15;2.58;;;;;;;18.95;74.69;100033.88;5083312;28;20051;-45
2021/07/30 11:42:07;;;;;;;4.43;3.53;;;;;;;18.99;74.54;100034.63;5081945;28;20052;-49